sensor_id;sensor_type;location;lat;lon;timestamp;pressure;altitude;pressure_sealevel;temperature;humidity
36664;BME280;53333;51.976;20.144;2024-01-27T00:00:53;100117.84;;;5.81;70.39
36664;BME280;53333;51.976;20.144;2024-01-27T00:03:26;100111.69;;;5.81;70.33
36664;BME280;53333;51.976;20.144;2024-01-27T00:06:00;100121.41;;;5.80;70.23
36664;BME280;53333;51.976;20.144;2024-01-27T00:08:34;100125.88;;;5.78;70.07
36664;BME280;53333;51.976;20.144;2024-01-27T00:11:07;100128.59;;;5.77;69.95
36664;BME280;53333;51.976;20.144;2024-01-27T00:13:40;100132.13;;;5.76;69.92
36664;BME280;53333;51.976;20.144;2024-01-27T00:16:13;100131.28;;;5.75;69.94
36664;BME280;53333;51.976;20.144;2024-01-27T00:18:46;100125.97;;;5.75;69.76
36664;BME280;53333;51.976;20.144;2024-01-27T00:21:20;100137.47;;;5.74;69.75
36664;BME280;53333;51.976;20.144;2024-01-27T00:23:53;100146.38;;;5.73;69.67
36664;BME280;53333;51.976;20.144;2024-01-27T00:26:32;100140.22;;;5.73;69.42
36664;BME280;53333;51.976;20.144;2024-01-27T00:29:05;100146.41;;;5.72;69.33
36664;BME280;53333;51.976;20.144;2024-01-27T00:31:38;100163.22;;;5.71;69.26
36664;BME280;53333;51.976;20.144;2024-01-27T00:34:11;100159.72;;;5.70;69.08
36664;BME280;53333;51.976;20.144;2024-01-27T00:36:45;100166.84;;;5.68;69.01
36664;BME280;53333;51.976;20.144;2024-01-27T00:39:20;100172.16;;;5.68;68.87
36664;BME280;53333;51.976;20.144;2024-01-27T00:41:54;100173.03;;;5.67;68.83
36664;BME280;53333;51.976;20.144;2024-01-27T00:44:30;100176.59;;;5.66;68.61
36664;BME280;53333;51.976;20.144;2024-01-27T00:47:03;100190.78;;;5.65;68.41
36664;BME280;53333;51.976;20.144;2024-01-27T00:49:36;100191.69;;;5.64;68.15
36664;BME280;53333;51.976;20.144;2024-01-27T00:52:10;100209.38;;;5.63;68.26
36664;BME280;53333;51.976;20.144;2024-01-27T00:54:43;100187.31;;;5.61;68.23
36664;BME280;53333;51.976;20.144;2024-01-27T00:57:16;100200.63;;;5.60;68.16
36664;BME280;53333;51.976;20.144;2024-01-27T00:59:49;100200.66;;;5.58;68.00
36664;BME280;53333;51.976;20.144;2024-01-27T01:02:22;100210.41;;;5.58;67.95
36664;BME280;53333;51.976;20.144;2024-01-27T01:04:55;100212.16;;;5.59;67.83
36664;BME280;53333;51.976;20.144;2024-01-27T01:07:29;100209.50;;;5.59;67.87
36664;BME280;53333;51.976;20.144;2024-01-27T01:10:03;100213.03;;;5.58;67.64
36664;BME280;53333;51.976;20.144;2024-01-27T01:12:36;100214.88;;;5.56;67.74
36664;BME280;53333;51.976;20.144;2024-01-27T01:15:09;100214.06;;;5.54;67.71
36664;BME280;53333;51.976;20.144;2024-01-27T01:17:42;100222.94;;;5.51;67.55
36664;BME280;53333;51.976;20.144;2024-01-27T01:20:15;100223.88;;;5.49;67.46
36664;BME280;53333;51.976;20.144;2024-01-27T01:22:50;100224.81;;;5.48;67.42
36664;BME280;53333;51.976;20.144;2024-01-27T01:25:23;100226.56;;;5.47;67.30
36664;BME280;53333;51.976;20.144;2024-01-27T01:27:55;100228.38;;;5.46;67.29
36664;BME280;53333;51.976;20.144;2024-01-27T01:30:28;100224.84;;;5.46;67.21
36664;BME280;53333;51.976;20.144;2024-01-27T01:33:02;100226.66;;;5.44;67.01
36664;BME280;53333;51.976;20.144;2024-01-27T01:35:35;100214.34;;;5.43;66.60
36664;BME280;53333;51.976;20.144;2024-01-27T01:38:10;100217.88;;;5.42;66.69
36664;BME280;53333;51.976;20.144;2024-01-27T01:40:43;100219.69;;;5.41;66.59
36664;BME280;53333;51.976;20.144;2024-01-27T01:43:16;100217.06;;;5.40;66.36
36664;BME280;53333;51.976;20.144;2024-01-27T01:45:49;100217.09;;;5.38;66.21
36664;BME280;53333;51.976;20.144;2024-01-27T01:48:25;100221.59;;;5.36;66.09
36664;BME280;53333;51.976;20.144;2024-01-27T01:50:58;100230.41;;;5.37;65.97
36664;BME280;53333;51.976;20.144;2024-01-27T01:53:34;100225.09;;;5.37;65.79
36664;BME280;53333;51.976;20.144;2024-01-27T01:56:07;100225.94;;;5.37;65.60
36664;BME280;53333;51.976;20.144;2024-01-27T01:58:40;100233.00;;;5.38;65.55
36664;BME280;53333;51.976;20.144;2024-01-27T02:01:13;100230.41;;;5.37;65.42
36664;BME280;53333;51.976;20.144;2024-01-27T02:03:52;100233.03;;;5.37;65.27
36664;BME280;53333;51.976;20.144;2024-01-27T02:06:25;100236.56;;;5.37;65.30
36664;BME280;53333;51.976;20.144;2024-01-27T02:08:59;100240.09;;;5.38;65.25
36664;BME280;53333;51.976;20.144;2024-01-27T02:11:32;100251.59;;;5.37;65.14
36664;BME280;53333;51.976;20.144;2024-01-27T02:14:06;100252.44;;;5.37;65.14
36664;BME280;53333;51.976;20.144;2024-01-27T02:16:39;100253.38;;;5.36;64.99
36664;BME280;53333;51.976;20.144;2024-01-27T02:19:12;100254.28;;;5.35;64.90
36664;BME280;53333;51.976;20.144;2024-01-27T02:21:45;100252.53;;;5.34;64.81
36664;BME280;53333;51.976;20.144;2024-01-27T02:24:19;100255.16;;;5.34;64.87
36664;BME280;53333;51.976;20.144;2024-01-27T02:26:52;100241.97;;;5.33;64.95
36664;BME280;53333;51.976;20.144;2024-01-27T02:29:25;100261.56;;;5.27;65.05
36664;BME280;53333;51.976;20.144;2024-01-27T02:31:59;100258.06;;;5.25;65.32
36664;BME280;53333;51.976;20.144;2024-01-27T02:34:32;100264.31;;;5.22;65.39
36664;BME280;53333;51.976;20.144;2024-01-27T02:37:05;100255.53;;;5.20;65.45
36664;BME280;53333;51.976;20.144;2024-01-27T02:39:42;100252.06;;;5.17;65.42
36664;BME280;53333;51.976;20.144;2024-01-27T02:42:15;100253.00;;;5.16;65.56
36664;BME280;53333;51.976;20.144;2024-01-27T02:44:48;100253.88;;;5.16;65.56
36664;BME280;53333;51.976;20.144;2024-01-27T02:47:21;100249.50;;;5.14;65.51
36664;BME280;53333;51.976;20.144;2024-01-27T02:49:54;100253.97;;;5.12;65.64
36664;BME280;53333;51.976;20.144;2024-01-27T02:52:27;100251.41;;;5.08;65.55
36664;BME280;53333;51.976;20.144;2024-01-27T02:55:01;100251.41;;;5.08;65.50
36664;BME280;53333;51.976;20.144;2024-01-27T02:57:34;100258.53;;;5.06;65.53
36664;BME280;53333;51.976;20.144;2024-01-27T03:00:08;100250.63;;;5.05;65.43
36664;BME280;53333;51.976;20.144;2024-01-27T03:02:42;100258.56;;;5.05;65.39
36664;BME280;53333;51.976;20.144;2024-01-27T03:05:15;100254.16;;;5.04;65.32
36664;BME280;53333;51.976;20.144;2024-01-27T03:07:48;100256.81;;;5.04;65.35
36664;BME280;53333;51.976;20.144;2024-01-27T03:10:22;100264.78;;;5.02;65.31
36664;BME280;53333;51.976;20.144;2024-01-27T03:12:55;100251.59;;;5.01;65.39
36664;BME280;53333;51.976;20.144;2024-01-27T03:15:28;100258.66;;;5.00;65.32
36664;BME280;53333;51.976;20.144;2024-01-27T03:18:01;100257.75;;;5.03;65.14
36664;BME280;53333;51.976;20.144;2024-01-27T03:20:34;100251.56;;;5.02;65.12
36664;BME280;53333;51.976;20.144;2024-01-27T03:23:07;100254.22;;;5.01;65.21
36664;BME280;53333;51.976;20.144;2024-01-27T03:25:41;100254.28;;;4.99;65.06
36664;BME280;53333;51.976;20.144;2024-01-27T03:28:14;100257.84;;;4.98;65.12
36664;BME280;53333;51.976;20.144;2024-01-27T03:30:47;100268.41;;;5.00;65.05
36664;BME280;53333;51.976;20.144;2024-01-27T03:33:20;100271.03;;;5.00;65.02
36664;BME280;53333;51.976;20.144;2024-01-27T03:35:54;100271.63;;;5.13;65.21
36664;BME280;53333;51.976;20.144;2024-01-27T03:38:27;100262.13;;;5.02;64.79
36664;BME280;53333;51.976;20.144;2024-01-27T03:41:01;100270.09;;;5.02;64.92
36664;BME280;53333;51.976;20.144;2024-01-27T03:43:34;100267.47;;;5.01;64.79
36664;BME280;53333;51.976;20.144;2024-01-27T03:46:07;100280.69;;;5.02;64.76
36664;BME280;53333;51.976;20.144;2024-01-27T03:48:40;100275.34;;;5.04;64.67
36664;BME280;53333;51.976;20.144;2024-01-27T03:51:13;100280.63;;;5.04;64.70
36664;BME280;53333;51.976;20.144;2024-01-27T03:53:46;100288.53;;;5.05;64.31
36664;BME280;53333;51.976;20.144;2024-01-27T03:56:20;100292.97;;;5.05;64.47
36664;BME280;53333;51.976;20.144;2024-01-27T03:58:53;100295.63;;;5.05;64.46
36664;BME280;53333;51.976;20.144;2024-01-27T04:01:26;100285.91;;;5.05;64.49
36664;BME280;53333;51.976;20.144;2024-01-27T04:03:59;100292.09;;;5.06;64.30
36664;BME280;53333;51.976;20.144;2024-01-27T04:06:36;100282.38;;;5.05;64.30
36664;BME280;53333;51.976;20.144;2024-01-27T04:09:09;100295.63;;;5.05;64.09
36664;BME280;53333;51.976;20.144;2024-01-27T04:11:44;100291.22;;;5.04;64.06
36664;BME280;53333;51.976;20.144;2024-01-27T04:14:17;100293.84;;;5.05;63.92
36664;BME280;53333;51.976;20.144;2024-01-27T04:16:50;100295.63;;;5.05;64.09
36664;BME280;53333;51.976;20.144;2024-01-27T04:19:23;100293.84;;;5.05;63.89
36664;BME280;53333;51.976;20.144;2024-01-27T04:21:56;100299.13;;;5.05;63.81
36664;BME280;53333;51.976;20.144;2024-01-27T04:24:29;100304.47;;;5.04;63.78
36664;BME280;53333;51.976;20.144;2024-01-27T04:27:04;100310.69;;;5.03;63.64
36664;BME280;53333;51.976;20.144;2024-01-27T04:29:37;100312.47;;;5.01;63.73
36664;BME280;53333;51.976;20.144;2024-01-27T04:32:10;100315.09;;;5.02;63.62
36664;BME280;53333;51.976;20.144;2024-01-27T04:34:44;100301.88;;;5.01;63.52
36664;BME280;53333;51.976;20.144;2024-01-27T04:37:17;100307.19;;;5.01;63.57
36664;BME280;53333;51.976;20.144;2024-01-27T04:39:50;100310.72;;;5.01;63.58
36664;BME280;53333;51.976;20.144;2024-01-27T04:42:24;100307.19;;;5.01;63.52
36664;BME280;53333;51.976;20.144;2024-01-27T04:44:57;100308.97;;;5.00;63.44
36664;BME280;53333;51.976;20.144;2024-01-27T04:47:30;100311.63;;;5.00;63.32
36664;BME280;53333;51.976;20.144;2024-01-27T04:50:04;100316.91;;;5.00;63.29
36664;BME280;53333;51.976;20.144;2024-01-27T04:52:37;100304.56;;;4.99;63.31
36664;BME280;53333;51.976;20.144;2024-01-27T04:55:10;100311.66;;;4.99;63.38
36664;BME280;53333;51.976;20.144;2024-01-27T04:57:44;100311.66;;;4.99;63.32
36664;BME280;53333;51.976;20.144;2024-01-27T05:00:17;100311.66;;;4.99;63.24
36664;BME280;53333;51.976;20.144;2024-01-27T05:02:50;100306.34;;;4.99;63.13
36664;BME280;53333;51.976;20.144;2024-01-27T05:05:23;100304.59;;;4.98;63.17
36664;BME280;53333;51.976;20.144;2024-01-27T05:07:56;100317.00;;;4.97;63.12
36664;BME280;53333;51.976;20.144;2024-01-27T05:10:29;100310.84;;;4.97;63.12
36664;BME280;53333;51.976;20.144;2024-01-27T05:13:03;100299.34;;;4.96;63.07
36664;BME280;53333;51.976;20.144;2024-01-27T05:15:37;100308.19;;;4.97;62.79
36664;BME280;53333;51.976;20.144;2024-01-27T05:18:10;100315.22;;;4.96;62.86
36664;BME280;53333;51.976;20.144;2024-01-27T05:20:44;100309.94;;;4.96;62.77
36664;BME280;53333;51.976;20.144;2024-01-27T05:23:17;100309.03;;;4.97;62.66
36664;BME280;53333;51.976;20.144;2024-01-27T05:25:50;100316.94;;;4.99;62.58
36664;BME280;53333;51.976;20.144;2024-01-27T05:28:24;100303.75;;;4.97;62.69
36664;BME280;53333;51.976;20.144;2024-01-27T05:30:57;100317.84;;;4.98;62.62
36664;BME280;53333;51.976;20.144;2024-01-27T05:33:30;100312.56;;;4.98;62.66
36664;BME280;53333;51.976;20.144;2024-01-27T05:36:04;100305.56;;;4.95;62.59
36664;BME280;53333;51.976;20.144;2024-01-27T05:38:37;100306.47;;;4.94;62.58
36664;BME280;53333;51.976;20.144;2024-01-27T05:41:10;100308.28;;;4.92;62.64
36664;BME280;53333;51.976;20.144;2024-01-27T05:43:45;100304.78;;;4.91;62.66
36664;BME280;53333;51.976;20.144;2024-01-27T05:46:18;100302.16;;;4.90;62.48
36664;BME280;53333;51.976;20.144;2024-01-27T05:48:51;100310.97;;;4.90;62.57
36664;BME280;53333;51.976;20.144;2024-01-27T05:51:26;100315.47;;;4.87;62.74
36664;BME280;53333;51.976;20.144;2024-01-27T05:53:59;100310.31;;;4.81;62.99
36664;BME280;53333;51.976;20.144;2024-01-27T05:56:32;100313.03;;;4.78;63.16
36664;BME280;53333;51.976;20.144;2024-01-27T05:59:06;100311.34;;;4.73;63.25
36664;BME280;53333;51.976;20.144;2024-01-27T06:01:39;100297.38;;;4.67;63.36
36664;BME280;53333;51.976;20.144;2024-01-27T06:04:12;100305.38;;;4.64;63.24
36664;BME280;53333;51.976;20.144;2024-01-27T06:06:45;100317.81;;;4.60;63.52
36664;BME280;53333;51.976;20.144;2024-01-27T06:09:19;100321.34;;;4.59;63.65
36664;BME280;53333;51.976;20.144;2024-01-27T06:11:53;100323.16;;;4.57;63.79
36664;BME280;53333;51.976;20.144;2024-01-27T06:14:27;100320.59;;;4.54;63.86
36664;BME280;53333;51.976;20.144;2024-01-27T06:17:01;100313.59;;;4.50;64.10
36664;BME280;53333;51.976;20.144;2024-01-27T06:19:34;100320.72;;;4.48;64.19
36664;BME280;53333;51.976;20.144;2024-01-27T06:22:07;100311.09;;;4.45;64.23
36664;BME280;53333;51.976;20.144;2024-01-27T06:24:42;100314.66;;;4.43;64.32
36664;BME280;53333;51.976;20.144;2024-01-27T06:27:15;100320.00;;;4.40;64.40
36664;BME280;53333;51.976;20.144;2024-01-27T06:29:49;100323.53;;;4.39;64.65
36664;BME280;53333;51.976;20.144;2024-01-27T06:32:22;100321.78;;;4.39;64.64
36664;BME280;53333;51.976;20.144;2024-01-27T06:34:55;100324.47;;;4.38;64.72
36664;BME280;53333;51.976;20.144;2024-01-27T06:37:28;100329.78;;;4.36;64.83
36664;BME280;53333;51.976;20.144;2024-01-27T06:40:01;100324.53;;;4.34;64.98
36664;BME280;53333;51.976;20.144;2024-01-27T06:42:35;100335.19;;;4.31;65.09
36664;BME280;53333;51.976;20.144;2024-01-27T06:45:10;100331.69;;;4.29;65.32
36664;BME280;53333;51.976;20.144;2024-01-27T06:47:43;100330.84;;;4.27;65.43
36664;BME280;53333;51.976;20.144;2024-01-27T06:50:16;100324.78;;;4.22;65.63
36664;BME280;53333;51.976;20.144;2024-01-27T06:52:48;100343.34;;;4.19;65.67
36664;BME280;53333;51.976;20.144;2024-01-27T06:55:21;100345.16;;;4.17;65.97
36664;BME280;53333;51.976;20.144;2024-01-27T06:57:54;100339.06;;;4.13;66.10
36664;BME280;53333;51.976;20.144;2024-01-27T07:00:29;100356.72;;;4.10;66.33
36664;BME280;53333;51.976;20.144;2024-01-27T07:03:02;100348.03;;;4.05;66.40
36664;BME280;53333;51.976;20.144;2024-01-27T07:05:35;100347.19;;;4.03;66.56
36664;BME280;53333;51.976;20.144;2024-01-27T07:08:12;100345.44;;;4.02;66.75
36664;BME280;53333;51.976;20.144;2024-01-27T07:10:45;100347.25;;;3.99;66.80
36664;BME280;53333;51.976;20.144;2024-01-27T07:13:18;100345.47;;;4.00;66.89
36664;BME280;53333;51.976;20.144;2024-01-27T07:15:52;100351.66;;;4.00;66.87
36664;BME280;53333;51.976;20.144;2024-01-27T07:18:25;100360.41;;;4.03;67.04
36664;BME280;53333;51.976;20.144;2024-01-27T07:20:59;100362.22;;;4.00;67.23
36664;BME280;53333;51.976;20.144;2024-01-27T07:23:32;100356.97;;;3.99;67.41
36664;BME280;53333;51.976;20.144;2024-01-27T07:26:09;100361.34;;;3.98;67.49
36664;BME280;53333;51.976;20.144;2024-01-27T07:28:42;100357.00;;;3.97;67.66
36664;BME280;53333;51.976;20.144;2024-01-27T07:31:16;100370.25;;;3.94;67.80
36664;BME280;53333;51.976;20.144;2024-01-27T07:33:50;100376.47;;;3.90;67.99
36664;BME280;53333;51.976;20.144;2024-01-27T07:36:23;100378.31;;;3.87;67.94
36664;BME280;53333;51.976;20.144;2024-01-27T07:38:57;100381.91;;;3.82;68.12
36664;BME280;53333;51.976;20.144;2024-01-27T07:41:30;100384.63;;;3.78;68.32
36664;BME280;53333;51.976;20.144;2024-01-27T07:44:09;100377.63;;;3.75;68.45
36664;BME280;53333;51.976;20.144;2024-01-27T07:46:44;100368.94;;;3.69;68.64
36664;BME280;53333;51.976;20.144;2024-01-27T07:49:16;100374.28;;;3.66;68.77
36664;BME280;53333;51.976;20.144;2024-01-27T07:51:50;100387.53;;;3.64;68.87
36664;BME280;53333;51.976;20.144;2024-01-27T07:54:23;100387.53;;;3.62;68.92
36664;BME280;53333;51.976;20.144;2024-01-27T07:56:56;100372.59;;;3.60;69.04
36664;BME280;53333;51.976;20.144;2024-01-27T07:59:29;100377.91;;;3.58;69.28
36664;BME280;53333;51.976;20.144;2024-01-27T08:02:03;100374.41;;;3.58;69.36
36664;BME280;53333;51.976;20.144;2024-01-27T08:04:37;100379.69;;;3.58;69.30
36664;BME280;53333;51.976;20.144;2024-01-27T08:07:10;100375.28;;;3.57;69.32
36664;BME280;53333;51.976;20.144;2024-01-27T08:09:46;100393.75;;;3.58;69.62
36664;BME280;53333;51.976;20.144;2024-01-27T08:12:19;100399.91;;;3.59;69.71
36664;BME280;53333;51.976;20.144;2024-01-27T08:14:52;100399.03;;;3.58;69.77
36664;BME280;53333;51.976;20.144;2024-01-27T08:17:26;100394.66;;;3.57;69.90
36664;BME280;53333;51.976;20.144;2024-01-27T08:19:59;100399.06;;;3.57;69.87
36664;BME280;53333;51.976;20.144;2024-01-27T08:22:33;100393.78;;;3.57;69.88
36664;BME280;53333;51.976;20.144;2024-01-27T08:25:07;100402.63;;;3.56;70.03
36664;BME280;53333;51.976;20.144;2024-01-27T08:27:40;100405.22;;;3.57;69.98
36664;BME280;53333;51.976;20.144;2024-01-27T08:30:16;100400.81;;;3.58;69.87
36664;BME280;53333;51.976;20.144;2024-01-27T08:32:50;100404.31;;;3.58;70.02
36664;BME280;53333;51.976;20.144;2024-01-27T08:35:25;100413.13;;;3.59;70.21
36664;BME280;53333;51.976;20.144;2024-01-27T08:37:58;100407.81;;;3.60;70.29
36664;BME280;53333;51.976;20.144;2024-01-27T08:40:31;100413.94;;;3.64;70.07
36664;BME280;53333;51.976;20.144;2024-01-27T08:43:04;100401.53;;;3.68;70.15
36664;BME280;53333;51.976;20.144;2024-01-27T08:45:38;100411.28;;;3.66;70.17
36664;BME280;53333;51.976;20.144;2024-01-27T08:48:13;100420.09;;;3.64;70.28
36664;BME280;53333;51.976;20.144;2024-01-27T08:50:47;100428.81;;;3.70;70.34
36664;BME280;53333;51.976;20.144;2024-01-27T08:53:20;100431.41;;;3.71;70.19
36664;BME280;53333;51.976;20.144;2024-01-27T08:55:53;100424.34;;;3.73;70.21
36664;BME280;53333;51.976;20.144;2024-01-27T08:58:26;100428.69;;;3.77;70.22
36664;BME280;53333;51.976;20.144;2024-01-27T09:00:58;100430.41;;;3.80;70.26
36664;BME280;53333;51.976;20.144;2024-01-27T09:03:38;100428.59;;;3.82;70.41
36664;BME280;53333;51.976;20.144;2024-01-27T09:06:12;100437.31;;;3.87;70.08
36664;BME280;53333;51.976;20.144;2024-01-27T09:08:46;100432.00;;;3.89;70.25
36664;BME280;53333;51.976;20.144;2024-01-27T09:11:19;100440.81;;;3.88;70.36
36664;BME280;53333;51.976;20.144;2024-01-27T09:13:53;100452.28;;;3.88;70.46
36664;BME280;53333;51.976;20.144;2024-01-27T09:16:26;100453.13;;;3.90;70.56
36664;BME280;53333;51.976;20.144;2024-01-27T09:19:00;100452.25;;;3.91;70.57
36664;BME280;53333;51.976;20.144;2024-01-27T09:21:34;100467.13;;;3.95;70.47
36664;BME280;53333;51.976;20.144;2024-01-27T09:24:07;100463.50;;;4.03;70.54
36664;BME280;53333;51.976;20.144;2024-01-27T09:26:41;100463.44;;;4.07;70.52
36664;BME280;53333;51.976;20.144;2024-01-27T09:29:14;100457.19;;;4.11;70.49
36664;BME280;53333;51.976;20.144;2024-01-27T09:31:47;100465.13;;;4.10;70.41
36664;BME280;53333;51.976;20.144;2024-01-27T09:34:21;100461.66;;;4.08;70.43
36664;BME280;53333;51.976;20.144;2024-01-27T09:36:55;100475.72;;;4.10;70.50
36664;BME280;53333;51.976;20.144;2024-01-27T09:39:28;100474.03;;;4.06;70.49
36664;BME280;53333;51.976;20.144;2024-01-27T09:42:05;100482.00;;;4.04;70.51
36664;BME280;53333;51.976;20.144;2024-01-27T09:44:40;100484.63;;;4.06;70.52
36664;BME280;53333;51.976;20.144;2024-01-27T09:47:15;100498.72;;;4.05;70.62
36664;BME280;53333;51.976;20.144;2024-01-27T09:49:50;100497.81;;;4.07;70.50
36664;BME280;53333;51.976;20.144;2024-01-27T09:52:24;100496.00;;;4.09;70.70
36664;BME280;53333;51.976;20.144;2024-01-27T09:54:57;100499.47;;;4.13;70.68
36664;BME280;53333;51.976;20.144;2024-01-27T09:57:30;100496.75;;;4.16;70.72
36664;BME280;53333;51.976;20.144;2024-01-27T10:00:04;100491.41;;;4.21;70.74
36664;BME280;53333;51.976;20.144;2024-01-27T10:02:39;100502.75;;;4.26;70.71
36664;BME280;53333;51.976;20.144;2024-01-27T10:05:14;100504.50;;;4.28;70.79
36664;BME280;53333;51.976;20.144;2024-01-27T10:07:48;100512.34;;;4.33;70.65
36664;BME280;53333;51.976;20.144;2024-01-27T10:10:24;100515.78;;;4.38;70.75
36664;BME280;53333;51.976;20.144;2024-01-27T10:12:58;100512.16;;;4.44;70.69
36664;BME280;53333;51.976;20.144;2024-01-27T10:15:32;100519.13;;;4.48;70.57
36664;BME280;53333;51.976;20.144;2024-01-27T10:18:06;100529.59;;;4.54;70.71
36664;BME280;53333;51.976;20.144;2024-01-27T10:20:41;100523.38;;;4.58;70.72
36664;BME280;53333;51.976;20.144;2024-01-27T10:23:15;100529.41;;;4.65;70.55
36664;BME280;53333;51.976;20.144;2024-01-27T10:25:49;100533.75;;;4.67;70.49
36664;BME280;53333;51.976;20.144;2024-01-27T10:28:23;100544.34;;;4.67;70.44
36664;BME280;53333;51.976;20.144;2024-01-27T10:31:07;100554.88;;;4.70;70.40
36664;BME280;53333;51.976;20.144;2024-01-27T10:33:50;100553.88;;;4.78;70.00
36664;BME280;53333;51.976;20.144;2024-01-27T10:36:25;100548.75;;;4.68;70.13
36664;BME280;53333;51.976;20.144;2024-01-27T10:38:58;100563.75;;;4.69;70.12
36664;BME280;53333;51.976;20.144;2024-01-27T10:41:32;100565.47;;;4.70;70.20
36664;BME280;53333;51.976;20.144;2024-01-27T10:44:07;100566.41;;;4.68;70.31
36664;BME280;53333;51.976;20.144;2024-01-27T10:46:43;100562.84;;;4.69;70.33
36664;BME280;53333;51.976;20.144;2024-01-27T10:49:17;100563.78;;;4.66;70.15
36664;BME280;53333;51.976;20.144;2024-01-27T10:51:53;100568.91;;;4.77;69.94
36664;BME280;53333;51.976;20.144;2024-01-27T10:54:27;100580.53;;;4.67;69.94
36664;BME280;53333;51.976;20.144;2024-01-27T10:57:01;100578.84;;;4.64;69.99
36664;BME280;53333;51.976;20.144;2024-01-27T10:59:34;100583.88;;;4.77;69.81
36664;BME280;53333;51.976;20.144;2024-01-27T11:02:11;100595.47;;;4.71;69.99
36664;BME280;53333;51.976;20.144;2024-01-27T11:04:47;100598.13;;;4.71;70.21
36664;BME280;53333;51.976;20.144;2024-01-27T11:07:22;100598.16;;;4.69;70.01
36664;BME280;53333;51.976;20.144;2024-01-27T11:09:56;100614.06;;;4.68;69.99
36664;BME280;53333;51.976;20.144;2024-01-27T11:12:29;100617.56;;;4.68;70.04
36664;BME280;53333;51.976;20.144;2024-01-27T11:15:03;100614.94;;;4.67;70.13
36664;BME280;53333;51.976;20.144;2024-01-27T11:17:39;100624.59;;;4.69;70.27
36664;BME280;53333;51.976;20.144;2024-01-27T11:20:12;100625.47;;;4.70;70.20
36664;BME280;53333;51.976;20.144;2024-01-27T11:22:49;100629.00;;;4.69;70.36
36664;BME280;53333;51.976;20.144;2024-01-27T11:25:23;100635.19;;;4.69;70.30
36664;BME280;53333;51.976;20.144;2024-01-27T11:27:57;100641.34;;;4.70;70.09
36664;BME280;53333;51.976;20.144;2024-01-27T11:30:31;100647.47;;;4.72;70.25
36664;BME280;53333;51.976;20.144;2024-01-27T11:33:06;100644.81;;;4.73;70.33
36664;BME280;53333;51.976;20.144;2024-01-27T11:35:40;100656.28;;;4.74;70.29
36664;BME280;53333;51.976;20.144;2024-01-27T11:38:14;100661.56;;;4.76;70.36
36664;BME280;53333;51.976;20.144;2024-01-27T11:40:47;100668.59;;;4.77;70.39
36664;BME280;53333;51.976;20.144;2024-01-27T11:43:21;100665.94;;;4.77;70.45
36664;BME280;53333;51.976;20.144;2024-01-27T11:45:55;100673.03;;;4.75;70.45
36664;BME280;53333;51.976;20.144;2024-01-27T11:48:29;100673.91;;;4.75;70.31
36664;BME280;53333;51.976;20.144;2024-01-27T11:51:04;100676.53;;;4.75;70.36
36664;BME280;53333;51.976;20.144;2024-01-27T11:53:39;100682.72;;;4.77;70.52
36664;BME280;53333;51.976;20.144;2024-01-27T11:56:14;100694.13;;;4.79;70.46
36664;BME280;53333;51.976;20.144;2024-01-27T11:58:47;100697.63;;;4.81;70.30
36664;BME280;53333;51.976;20.144;2024-01-27T12:01:20;100695.84;;;4.82;70.37
36664;BME280;53333;51.976;20.144;2024-01-27T12:03:54;100696.69;;;4.85;70.38
36664;BME280;53333;51.976;20.144;2024-01-27T12:06:27;100704.66;;;4.84;70.36
36664;BME280;53333;51.976;20.144;2024-01-27T12:09:02;100709.94;;;4.84;70.38
36664;BME280;53333;51.976;20.144;2024-01-27T12:11:35;100718.72;;;4.86;70.42
36664;BME280;53333;51.976;20.144;2024-01-27T12:14:08;100724.03;;;4.86;70.33
36664;BME280;53333;51.976;20.144;2024-01-27T12:16:40;100735.50;;;4.85;70.42
36664;BME280;53333;51.976;20.144;2024-01-27T12:19:16;100728.47;;;4.84;70.40
36664;BME280;53333;51.976;20.144;2024-01-27T12:21:49;100739.91;;;4.86;70.46
36664;BME280;53333;51.976;20.144;2024-01-27T12:24:24;100749.59;;;4.88;70.49
36664;BME280;53333;51.976;20.144;2024-01-27T12:26:56;100750.44;;;4.89;70.38
36664;BME280;53333;51.976;20.144;2024-01-27T12:29:30;100761.00;;;4.92;70.41
36664;BME280;53333;51.976;20.144;2024-01-27T12:32:03;100763.63;;;4.94;70.51
36664;BME280;53333;51.976;20.144;2024-01-27T12:34:39;100769.78;;;4.94;70.56
36664;BME280;53333;51.976;20.144;2024-01-27T12:37:13;100780.34;;;4.96;70.31
36664;BME280;53333;51.976;20.144;2024-01-27T12:39:47;100783.91;;;4.95;70.40
36664;BME280;53333;51.976;20.144;2024-01-27T12:42:22;100784.78;;;4.95;70.33
36664;BME280;53333;51.976;20.144;2024-01-27T12:44:55;100788.28;;;4.96;70.14
36664;BME280;53333;51.976;20.144;2024-01-27T12:47:28;100784.78;;;4.95;70.15
36664;BME280;53333;51.976;20.144;2024-01-27T12:50:01;100800.69;;;4.94;70.08
36664;BME280;53333;51.976;20.144;2024-01-27T12:52:35;100802.44;;;4.95;70.20
36664;BME280;53333;51.976;20.144;2024-01-27T12:55:09;100801.53;;;4.96;70.13
36664;BME280;53333;51.976;20.144;2024-01-27T12:57:42;100814.78;;;4.96;70.23
36664;BME280;53333;51.976;20.144;2024-01-27T13:00:17;100811.25;;;4.95;70.29
36664;BME280;53333;51.976;20.144;2024-01-27T13:02:51;100823.63;;;4.95;69.98
36664;BME280;53333;51.976;20.144;2024-01-27T13:05:24;100822.72;;;4.94;70.12
36664;BME280;53333;51.976;20.144;2024-01-27T13:07:58;100831.56;;;4.95;70.31
36664;BME280;53333;51.976;20.144;2024-01-27T13:10:32;100840.38;;;4.95;70.26
36664;BME280;53333;51.976;20.144;2024-01-27T13:13:05;100841.28;;;4.94;70.13
36664;BME280;53333;51.976;20.144;2024-01-27T13:15:38;100851.84;;;4.96;70.15
36664;BME280;53333;51.976;20.144;2024-01-27T13:18:11;100854.50;;;4.96;70.29
36664;BME280;53333;51.976;20.144;2024-01-27T13:20:47;100865.06;;;4.97;70.28
36664;BME280;53333;51.976;20.144;2024-01-27T13:23:20;100864.16;;;5.00;70.34